Terminal Aerodrome Forecast
Issued by NWS Newport/Morehead City, NC

Home | Current Version | Previous Version | Text Only | Print | Product List | Glossary On
Versions: 1 2 3 4 5 6 7 8 9 10 11 12 13 14 15 16 17 18
000
FTUS42 KMHX 222300
TAFEWN
TAF
KEWN 222333Z 2300/2324 31005KT P6SM BKN250
     FM230600 00000KT 4SM BR BKN100
     FM231230 03005KT P6SM BKN050
     FM231800 05005KT P6SM VCSH BKN050=

USA.gov is the U.S. government's official web portal to all federal, state and local government web resources and services.